createdAt,value
2023-01-20T00:01:48.106Z,99796.97
2023-01-20T00:04:19.777Z,99798.59
2023-01-20T00:06:49.191Z,99797.09
2023-01-20T00:09:19.871Z,99803.16
2023-01-20T00:11:48.965Z,99814.03
2023-01-20T00:14:17.975Z,99814.09
2023-01-20T00:16:47.090Z,99814.03
2023-01-20T00:19:15.977Z,99822.63
2023-01-20T00:21:46.470Z,99829.28
2023-01-20T00:24:15.772Z,99829.88
2023-01-20T00:26:44.826Z,99824.69
2023-01-20T00:29:13.727Z,99829.72
2023-01-20T00:31:43.323Z,99836.59
2023-01-20T00:34:12.572Z,99836.50
2023-01-20T00:36:41.657Z,99836.72
2023-01-20T00:39:11.813Z,99845.09
2023-01-20T00:41:40.904Z,99850.44
2023-01-20T00:44:09.721Z,99849.19
2023-01-20T00:46:39.014Z,99854.72
2023-01-20T00:49:07.833Z,99847.22
2023-01-20T00:51:36.901Z,99855.78
2023-01-20T00:54:05.762Z,99861.22
2023-01-20T00:56:36.170Z,99865.28
2023-01-20T00:59:04.945Z,99870.13
2023-01-20T01:01:34.344Z,99872.28
2023-01-20T01:04:03.240Z,99879.16
2023-01-20T01:06:32.296Z,99874.47
2023-01-20T01:09:01.127Z,99875.75
2023-01-20T01:11:30.299Z,99871.78
2023-01-20T01:14:00.427Z,99879.16
2023-01-20T01:16:29.568Z,99873.38
2023-01-20T01:18:58.450Z,99879.25
2023-01-20T01:21:27.554Z,99885.16
2023-01-20T01:23:56.346Z,99881.66
2023-01-20T01:26:26.368Z,99896.94
2023-01-20T01:28:55.155Z,99898.06
2023-01-20T01:31:25.640Z,99897.09
2023-01-20T01:33:54.610Z,99894.56
2023-01-20T01:36:23.700Z,99898.69
2023-01-20T01:38:58.389Z,99893.56
2023-01-20T01:41:28.509Z,99894.34
2023-01-20T01:44:08.668Z,99902.31
2023-01-20T01:46:40.444Z,99893.38
2023-01-20T01:49:15.617Z,99894.19
2023-01-20T01:51:50.698Z,99897.72
2023-01-20T01:54:24.636Z,99889.75
2023-01-20T01:56:54.787Z,99894.28
2023-01-20T01:59:23.832Z,99894.00
2023-01-20T02:01:56.236Z,99889.72
2023-01-20T02:04:27.878Z,99893.13
2023-01-20T02:07:03.527Z,99890.50
2023-01-20T02:09:33.130Z,99889.06
2023-01-20T02:12:08.210Z,99892.41
2023-01-20T02:14:42.226Z,99893.50
2023-01-20T02:17:24.410Z,99900.06
2023-01-20T02:20:34.580Z,99913.78
2023-01-20T02:23:23.414Z,99907.63
2023-01-20T02:26:41.682Z,99914.56
2023-01-20T02:29:43.330Z,99902.56
2023-01-20T02:32:31.782Z,99914.47
2023-01-20T02:35:12.440Z,99919.50
2023-01-20T02:37:52.686Z,99913.63
2023-01-20T02:40:32.778Z,99908.59
2023-01-20T02:43:12.929Z,99901.63
2023-01-20T02:45:50.957Z,99910.94
2023-01-20T02:48:29.175Z,99908.38
2023-01-20T02:51:07.752Z,99904.13
2023-01-20T02:53:46.107Z,99903.97
2023-01-20T02:56:17.343Z,99906.91
2023-01-20T02:58:52.054Z,99906.28
2023-01-20T03:01:28.506Z,99901.22
2023-01-20T03:04:03.171Z,99903.00
2023-01-20T03:06:37.279Z,99897.09
2023-01-20T03:09:12.071Z,99908.19
2023-01-20T03:11:52.539Z,99918.66
2023-01-20T03:14:21.674Z,99921.88
2023-01-20T03:16:51.248Z,99924.25
2023-01-20T03:19:22.109Z,99929.31
2023-01-20T03:21:51.298Z,99926.09
2023-01-20T03:24:20.730Z,99923.31
2023-01-20T03:26:49.927Z,99933.66
2023-01-20T03:29:18.702Z,99935.25
2023-01-20T03:31:53.953Z,99935.91
2023-01-20T03:34:27.465Z,99937.25
2023-01-20T03:36:58.831Z,99939.03
2023-01-20T03:39:28.428Z,99940.75
2023-01-20T03:42:11.413Z,99941.59
2023-01-20T03:45:01.606Z,99944.91
2023-01-20T03:47:54.678Z,99964.75
2023-01-20T03:50:38.103Z,99971.06
2023-01-20T03:53:23.413Z,99968.47
2023-01-20T03:56:02.947Z,99970.06
2023-01-20T03:58:38.733Z,99980.47
2023-01-20T04:01:18.646Z,99979.75
2023-01-20T04:03:53.745Z,99985.56
2023-01-20T04:06:28.460Z,99991.88
2023-01-20T04:09:04.201Z,99985.19
2023-01-20T04:11:33.227Z,99988.94
2023-01-20T04:14:02.751Z,99989.81
2023-01-20T04:16:31.521Z,100002.41
2023-01-20T04:19:00.605Z,99990.72
2023-01-20T04:21:36.186Z,99996.56
2023-01-20T04:24:14.136Z,99996.00
2023-01-20T04:26:43.130Z,100009.78
2023-01-20T04:29:13.329Z,100007.44
2023-01-20T04:31:42.312Z,100011.88
2023-01-20T04:34:15.474Z,100021.03
2023-01-20T04:36:45.631Z,100013.22
2023-01-20T04:39:14.700Z,100020.09
2023-01-20T04:41:43.520Z,100033.16
2023-01-20T04:44:12.608Z,100032.97
2023-01-20T04:46:41.408Z,100041.31
2023-01-20T04:49:11.353Z,100053.31
2023-01-20T04:51:40.402Z,100057.47
2023-01-20T04:54:10.801Z,100063.28
2023-01-20T04:56:39.615Z,100064.03
2023-01-20T04:59:08.752Z,100066.94
2023-01-20T05:01:37.702Z,100077.16
2023-01-20T05:04:06.981Z,100073.47
2023-01-20T05:06:36.174Z,100080.06
2023-01-20T05:09:05.537Z,100079.22
2023-01-20T05:11:35.726Z,100068.75
2023-01-20T05:14:04.829Z,100073.00
2023-01-20T05:16:34.215Z,100076.28
2023-01-20T05:19:03.316Z,100074.47
2023-01-20T05:21:32.574Z,100083.03
2023-01-20T05:24:01.765Z,100091.56
2023-01-20T05:26:30.642Z,100098.25
2023-01-20T05:29:02.717Z,100103.44
2023-01-20T05:31:31.744Z,100106.97
2023-01-20T05:34:00.820Z,100103.72
2023-01-20T05:36:29.703Z,100105.81
2023-01-20T05:38:58.778Z,100094.00
2023-01-20T05:41:27.603Z,100101.00
2023-01-20T05:43:56.926Z,100105.00
2023-01-20T05:46:27.145Z,100107.38
2023-01-20T05:48:56.431Z,100118.06
2023-01-20T05:51:25.235Z,100124.94
2023-01-20T05:53:54.427Z,100136.91
2023-01-20T05:56:23.213Z,100139.28
2023-01-20T05:58:56.069Z,100158.91
2023-01-20T06:01:26.584Z,100169.75
2023-01-20T06:03:55.736Z,100181.22
2023-01-20T06:06:24.487Z,100180.84
2023-01-20T06:08:54.617Z,100189.66
2023-01-20T06:11:23.818Z,100188.59
2023-01-20T06:13:52.848Z,100193.50
2023-01-20T06:16:21.864Z,100200.56
2023-01-20T06:18:52.319Z,100208.31
2023-01-20T06:21:21.145Z,100211.00
2023-01-20T06:23:50.307Z,100224.41
2023-01-20T06:26:19.130Z,100224.66
2023-01-20T06:28:48.207Z,100221.06
2023-01-20T06:31:18.485Z,100229.59
2023-01-20T06:33:47.562Z,100233.81
2023-01-20T06:36:17.810Z,100233.16
2023-01-20T06:38:50.607Z,100231.19
2023-01-20T06:41:21.551Z,100229.38
2023-01-20T06:43:52.492Z,100238.16
2023-01-20T06:46:22.400Z,100252.56
2023-01-20T06:48:51.751Z,100250.66
2023-01-20T06:51:22.541Z,100248.88
2023-01-20T06:53:51.582Z,100256.50
2023-01-20T06:56:20.889Z,100260.06
2023-01-20T06:58:50.136Z,100259.28
2023-01-20T07:01:23.729Z,100257.63
2023-01-20T07:03:53.323Z,100260.13
2023-01-20T07:06:30.104Z,100260.44
2023-01-20T07:09:00.918Z,100274.09
2023-01-20T07:11:31.470Z,100266.97
2023-01-20T07:14:00.648Z,100276.41
2023-01-20T07:16:29.525Z,100271.91
2023-01-20T07:18:59.172Z,100278.13
2023-01-20T07:21:29.733Z,100278.09
2023-01-20T07:24:02.438Z,100289.75
2023-01-20T07:26:32.000Z,100289.84
2023-01-20T07:29:01.185Z,100284.56
2023-01-20T07:31:31.966Z,100279.53
2023-01-20T07:34:01.134Z,100291.56
2023-01-20T07:36:31.548Z,100292.25
2023-01-20T07:39:00.686Z,100289.56
2023-01-20T07:41:29.489Z,100286.78
2023-01-20T07:43:58.564Z,100289.34
2023-01-20T07:46:27.472Z,100290.97
2023-01-20T07:48:57.828Z,100301.53
2023-01-20T07:51:26.617Z,100295.50
2023-01-20T07:53:57.060Z,100292.84
2023-01-20T07:56:29.662Z,100296.25
2023-01-20T07:58:59.418Z,100300.41
2023-01-20T08:01:31.907Z,100292.44
2023-01-20T08:04:02.156Z,100299.28
2023-01-20T08:06:32.214Z,100302.97
2023-01-20T08:09:04.179Z,100302.38
2023-01-20T08:11:33.307Z,100298.69
2023-01-20T08:14:02.395Z,100302.84
2023-01-20T08:16:31.270Z,100297.38
2023-01-20T08:19:00.612Z,100297.63
2023-01-20T08:21:31.756Z,100298.34
2023-01-20T08:24:06.586Z,100302.72
2023-01-20T08:26:35.945Z,100307.41
2023-01-20T08:29:09.490Z,100296.84
2023-01-20T08:31:39.841Z,100308.38
2023-01-20T08:34:09.716Z,100299.75
2023-01-20T08:36:41.409Z,100303.19
2023-01-20T08:39:18.130Z,100309.38
2023-01-20T08:41:49.191Z,100301.66
2023-01-20T08:44:20.519Z,100318.38
2023-01-20T08:46:52.665Z,100320.88
2023-01-20T08:49:23.456Z,100325.47
2023-01-20T08:51:53.261Z,100323.19
2023-01-20T08:54:24.040Z,100327.31
2023-01-20T08:56:53.900Z,100329.22
2023-01-20T08:59:23.014Z,100328.47
2023-01-20T09:01:51.861Z,100325.66
2023-01-20T09:04:20.987Z,100323.13
2023-01-20T09:06:52.833Z,100320.00
2023-01-20T09:09:24.396Z,100317.22
2023-01-20T09:11:53.490Z,100322.97
2023-01-20T09:14:25.350Z,100318.19
2023-01-20T09:16:54.345Z,100320.28
2023-01-20T09:19:24.027Z,100326.66
2023-01-20T09:21:52.926Z,100329.41
2023-01-20T09:24:22.556Z,100334.16
2023-01-20T09:26:53.390Z,100341.91
2023-01-20T09:29:22.660Z,100344.50
2023-01-20T09:31:54.057Z,100347.00
2023-01-20T09:34:24.524Z,100347.88
2023-01-20T09:36:57.982Z,100356.22
2023-01-20T09:39:44.759Z,100348.38
2023-01-20T09:42:51.025Z,100362.19
2023-01-20T09:45:28.924Z,100355.38
2023-01-20T09:48:15.061Z,100370.72
2023-01-20T09:51:13.143Z,100372.69
2023-01-20T09:53:55.536Z,100372.00
2023-01-20T09:56:28.802Z,100374.56
2023-01-20T09:59:06.546Z,100373.38
2023-01-20T10:01:43.421Z,100375.09
2023-01-20T10:04:21.921Z,100373.13
2023-01-20T10:06:56.375Z,100373.84
2023-01-20T10:09:34.828Z,100377.41
2023-01-20T10:12:14.165Z,100364.41
2023-01-20T10:14:50.897Z,100365.09
2023-01-20T10:17:26.086Z,100366.66
2023-01-20T10:20:02.878Z,100365.44
2023-01-20T10:22:41.879Z,100367.41
2023-01-20T10:25:17.356Z,100369.44
2023-01-20T10:27:55.291Z,100375.88
2023-01-20T10:30:33.142Z,100380.47
2023-01-20T10:33:10.239Z,100375.66
2023-01-20T10:35:44.591Z,100386.94
2023-01-20T10:38:27.649Z,100380.97
2023-01-20T10:41:04.632Z,100394.69
2023-01-20T10:43:33.930Z,100391.25
2023-01-20T10:46:29.824Z,100396.81
2023-01-20T10:49:26.627Z,100397.34
2023-01-20T10:52:24.771Z,100405.19
2023-01-20T10:55:06.056Z,100407.19
2023-01-20T10:57:36.284Z,100414.03
2023-01-20T11:00:16.409Z,100408.84
2023-01-20T11:02:49.285Z,100401.56
2023-01-20T11:05:22.399Z,100410.91
2023-01-20T11:07:55.063Z,100401.31
2023-01-20T11:10:29.196Z,100411.97
2023-01-20T11:13:02.371Z,100392.72
2023-01-20T11:15:35.158Z,100393.13
2023-01-20T11:18:28.036Z,100398.94
2023-01-20T11:21:02.297Z,100390.28
2023-01-20T11:23:39.790Z,100402.22
2023-01-20T11:26:19.968Z,100397.91
2023-01-20T11:28:56.368Z,100404.00
2023-01-20T11:31:40.648Z,100402.47
2023-01-20T11:34:27.830Z,100400.22
2023-01-20T11:37:18.142Z,100401.09
2023-01-20T11:40:01.580Z,100412.63
2023-01-20T11:42:42.144Z,100405.72
2023-01-20T11:45:32.712Z,100419.78
2023-01-20T11:48:18.314Z,100427.09
2023-01-20T11:50:57.482Z,100429.88
2023-01-20T11:53:31.605Z,100432.97
2023-01-20T11:56:05.967Z,100426.91
2023-01-20T11:58:51.525Z,100426.91
2023-01-20T12:01:26.498Z,100420.34
2023-01-20T12:04:24.403Z,100426.53
2023-01-20T12:07:03.575Z,100436.09
2023-01-20T12:09:38.984Z,100428.56
2023-01-20T12:12:18.689Z,100424.03
2023-01-20T12:14:53.901Z,100434.25
2023-01-20T12:17:41.045Z,100431.19
2023-01-20T12:20:24.877Z,100446.22
2023-01-20T12:23:21.105Z,100448.31
2023-01-20T12:25:57.178Z,100443.19
2023-01-20T12:28:39.144Z,100455.22
2023-01-20T12:31:12.296Z,100448.81
2023-01-20T12:33:45.509Z,100457.81
2023-01-20T12:37:09.534Z,100453.41
2023-01-20T12:40:10.748Z,100462.34
2023-01-20T12:43:27.006Z,100458.94
2023-01-20T12:46:24.556Z,100459.00
2023-01-20T12:49:17.276Z,100455.47
2023-01-20T12:52:06.465Z,100448.94
2023-01-20T12:55:10.266Z,100454.41
2023-01-20T12:57:58.475Z,100465.59
2023-01-20T13:01:07.532Z,100467.22
2023-01-20T13:04:16.790Z,100467.13
2023-01-20T13:07:29.895Z,100461.00
2023-01-20T13:10:22.674Z,100454.75
2023-01-20T13:13:03.853Z,100464.38
2023-01-20T13:15:39.922Z,100472.03
2023-01-20T13:18:29.318Z,100468.56
2023-01-20T13:20:58.224Z,100475.38
2023-01-20T13:23:33.690Z,100471.34
2023-01-20T13:26:07.214Z,100473.78
2023-01-20T13:28:36.617Z,100470.56
2023-01-20T13:31:47.372Z,100465.50
2023-01-20T13:34:36.652Z,100459.50
2023-01-20T13:37:35.367Z,100460.91
2023-01-20T13:40:27.013Z,100464.63
2023-01-20T13:42:57.224Z,100453.78
2023-01-20T13:45:27.988Z,100456.13
2023-01-20T13:48:03.892Z,100457.00
2023-01-20T13:50:36.662Z,100466.47
2023-01-20T13:53:29.404Z,100458.59
2023-01-20T13:56:27.934Z,100444.28
2023-01-20T13:58:59.174Z,100443.94
2023-01-20T14:01:29.531Z,100449.28
2023-01-20T14:04:07.682Z,100449.41
2023-01-20T14:06:45.691Z,100461.50
2023-01-20T14:09:22.023Z,100467.56
2023-01-20T14:11:52.575Z,100468.63
2023-01-20T14:14:26.065Z,100477.38
2023-01-20T14:17:04.797Z,100477.94
2023-01-20T14:19:36.614Z,100476.44
2023-01-20T14:22:20.737Z,100490.03
2023-01-20T14:24:52.879Z,100493.13
2023-01-20T14:27:27.257Z,100474.88
2023-01-20T14:30:00.569Z,100496.66
2023-01-20T14:32:34.902Z,100504.81
2023-01-20T14:35:15.247Z,100512.00
2023-01-20T14:37:49.662Z,100507.47
2023-01-20T14:40:26.848Z,100512.97
2023-01-20T14:43:01.717Z,100518.78
2023-01-20T14:45:34.471Z,100524.34
2023-01-20T14:48:06.525Z,100521.13
2023-01-20T14:50:35.495Z,100520.00
2023-01-20T14:53:05.702Z,100527.22
2023-01-20T14:55:40.727Z,100545.72
2023-01-20T14:58:16.971Z,100544.16
2023-01-20T15:00:49.755Z,100561.28
2023-01-20T15:03:23.920Z,100560.72
2023-01-20T15:05:59.275Z,100560.72
2023-01-20T15:08:56.876Z,100565.69
2023-01-20T15:11:31.461Z,100571.78
2023-01-20T15:14:13.001Z,100572.81
2023-01-20T15:16:51.081Z,100565.69
2023-01-20T15:19:36.778Z,100567.31
2023-01-20T15:22:33.089Z,100551.53
2023-01-20T15:25:13.883Z,100558.72
2023-01-20T15:27:42.719Z,100568.34
2023-01-20T15:30:21.111Z,100571.13
2023-01-20T15:32:53.126Z,100567.25
2023-01-20T15:35:25.993Z,100564.47
2023-01-20T15:37:55.661Z,100555.69
2023-01-20T15:40:26.899Z,100571.53
2023-01-20T15:42:57.367Z,100581.38
2023-01-20T15:45:26.872Z,100575.59
2023-01-20T15:47:57.915Z,100587.00
2023-01-20T15:50:31.210Z,100584.50
2023-01-20T15:53:00.976Z,100585.31
2023-01-20T15:55:30.212Z,100589.75
2023-01-20T15:57:59.089Z,100583.72
2023-01-20T16:00:29.867Z,100575.53
2023-01-20T16:03:00.321Z,100571.81
2023-01-20T16:05:29.728Z,100577.41
2023-01-20T16:07:58.552Z,100574.66
2023-01-20T16:10:27.675Z,100563.56
2023-01-20T16:12:56.495Z,100571.09
2023-01-20T16:15:25.705Z,100573.66
2023-01-20T16:17:54.645Z,100576.19
2023-01-20T16:20:27.353Z,100579.59
2023-01-20T16:22:56.866Z,100587.09
2023-01-20T16:25:28.764Z,100595.69
2023-01-20T16:27:59.082Z,100580.63
2023-01-20T16:30:28.502Z,100591.78
2023-01-20T16:32:57.303Z,100590.63
2023-01-20T16:35:27.981Z,100599.34
2023-01-20T16:37:56.919Z,100607.38
2023-01-20T16:40:26.287Z,100606.50
2023-01-20T16:42:56.972Z,100608.66
2023-01-20T16:45:29.772Z,100610.25
2023-01-20T16:47:58.709Z,100625.31
2023-01-20T16:50:30.241Z,100624.81
2023-01-20T16:52:59.019Z,100630.81
2023-01-20T16:55:28.296Z,100626.69
2023-01-20T16:57:57.395Z,100635.84
2023-01-20T17:00:26.686Z,100631.53
2023-01-20T17:02:55.584Z,100633.97
2023-01-20T17:05:25.910Z,100640.25
2023-01-20T17:07:58.555Z,100641.31
2023-01-20T17:10:32.295Z,100643.00
2023-01-20T17:13:01.811Z,100648.06
2023-01-20T17:15:30.949Z,100647.88
2023-01-20T17:18:00.380Z,100650.88
2023-01-20T17:20:31.061Z,100650.94
2023-01-20T17:23:01.302Z,100649.97
2023-01-20T17:25:30.456Z,100650.34
2023-01-20T17:27:59.327Z,100653.94
2023-01-20T17:30:28.546Z,100655.56
2023-01-20T17:32:57.420Z,100658.75
2023-01-20T17:35:26.662Z,100652.06
2023-01-20T17:37:55.546Z,100652.22
2023-01-20T17:40:26.154Z,100660.00
2023-01-20T17:42:55.277Z,100664.53
2023-01-20T17:45:24.517Z,100658.38
2023-01-20T17:47:53.371Z,100670.31
2023-01-20T17:50:22.547Z,100669.63
2023-01-20T17:52:52.481Z,100671.94
2023-01-20T17:55:21.611Z,100682.72
2023-01-20T17:57:53.155Z,100685.63
2023-01-20T18:00:23.390Z,100681.97
2023-01-20T18:02:52.219Z,100681.72
2023-01-20T18:05:21.373Z,100673.03
2023-01-20T18:07:50.945Z,100669.72
2023-01-20T18:10:20.150Z,100668.44
2023-01-20T18:12:49.118Z,100674.16
2023-01-20T18:15:21.302Z,100671.28
2023-01-20T18:17:50.218Z,100672.69
2023-01-20T18:20:19.443Z,100678.63
2023-01-20T18:22:51.893Z,100673.16
2023-01-20T18:25:21.048Z,100670.63
2023-01-20T18:27:49.836Z,100664.50
2023-01-20T18:30:20.606Z,100674.81
2023-01-20T18:32:49.406Z,100667.91
2023-01-20T18:35:18.619Z,100670.94
2023-01-20T18:37:47.436Z,100673.41
2023-01-20T18:40:16.968Z,100676.66
2023-01-20T18:42:46.015Z,100688.97
2023-01-20T18:45:15.315Z,100676.06
2023-01-20T18:47:45.517Z,100682.97
2023-01-20T18:50:16.522Z,100689.59
2023-01-20T18:52:45.479Z,100684.53
2023-01-20T18:55:14.657Z,100687.25
2023-01-20T18:57:43.488Z,100681.00
2023-01-20T19:00:14.098Z,100683.47
2023-01-20T19:02:44.293Z,100687.56
2023-01-20T19:05:13.425Z,100682.00
2023-01-20T19:07:42.205Z,100681.84
2023-01-20T19:10:12.574Z,100676.47
2023-01-20T19:12:41.479Z,100686.13
2023-01-20T19:15:11.368Z,100685.19
2023-01-20T19:17:40.213Z,100684.59
2023-01-20T19:20:12.626Z,100691.31
2023-01-20T19:22:41.442Z,100690.44
2023-01-20T19:25:11.944Z,100699.56
2023-01-20T19:27:40.834Z,100700.03
2023-01-20T19:30:11.804Z,100692.06
2023-01-20T19:32:42.271Z,100687.00
2023-01-20T19:35:12.806Z,100694.34
2023-01-20T19:37:43.698Z,100691.16
2023-01-20T19:40:14.103Z,100697.03
2023-01-20T19:42:43.415Z,100687.41
2023-01-20T19:45:12.707Z,100688.19
2023-01-20T19:47:41.509Z,100689.97
2023-01-20T19:50:13.457Z,100691.09
2023-01-20T19:52:42.241Z,100682.31
2023-01-20T19:55:11.472Z,100684.22
2023-01-20T19:57:40.247Z,100675.69
2023-01-20T20:00:11.602Z,100671.63
2023-01-20T20:02:41.240Z,100686.50
2023-01-20T20:05:11.031Z,100675.63
2023-01-20T20:07:41.425Z,100675.34
2023-01-20T20:10:11.310Z,100677.13
2023-01-20T20:12:40.116Z,100675.16
2023-01-20T20:15:10.023Z,100680.31
2023-01-20T20:17:38.852Z,100682.09
2023-01-20T20:20:09.130Z,100668.22
2023-01-20T20:22:37.929Z,100669.41
2023-01-20T20:25:11.589Z,100672.53
2023-01-20T20:27:40.445Z,100672.53
2023-01-20T20:30:11.629Z,100670.69
2023-01-20T20:32:40.407Z,100669.22
2023-01-20T20:35:10.042Z,100658.94
2023-01-20T20:37:38.907Z,100663.28
2023-01-20T20:40:12.003Z,100652.72
2023-01-20T20:42:40.878Z,100656.13
2023-01-20T20:45:11.831Z,100650.28
2023-01-20T20:47:40.707Z,100642.66
2023-01-20T20:50:12.103Z,100653.72
2023-01-20T20:52:41.173Z,100651.84
2023-01-20T20:55:12.386Z,100647.91
2023-01-20T20:57:41.687Z,100644.06
2023-01-20T21:00:12.591Z,100641.75
2023-01-20T21:02:43.133Z,100651.41
2023-01-20T21:05:12.584Z,100647.50
2023-01-20T21:07:41.488Z,100654.25
2023-01-20T21:10:16.902Z,100661.38
2023-01-20T21:12:46.783Z,100660.47
2023-01-20T21:15:17.946Z,100662.72
2023-01-20T21:17:47.019Z,100652.41
2023-01-20T21:20:16.580Z,100653.59
2023-01-20T21:22:45.506Z,100656.84
2023-01-20T21:25:17.718Z,100659.84
2023-01-20T21:27:47.045Z,100654.41
2023-01-20T21:30:17.120Z,100654.44
2023-01-20T21:32:46.205Z,100640.88
2023-01-20T21:35:15.424Z,100645.97
2023-01-20T21:37:44.534Z,100656.34
2023-01-20T21:40:16.111Z,100646.47
2023-01-20T21:42:45.765Z,100665.38
2023-01-20T21:45:14.062Z,100642.06
2023-01-20T21:47:42.915Z,100648.22
2023-01-20T21:50:44.428Z,100638.38
2023-01-20T21:53:15.305Z,100644.00
2023-01-20T21:55:45.753Z,100637.78
2023-01-20T21:58:14.540Z,100640.66
2023-01-20T22:00:43.671Z,100643.09
2023-01-20T22:03:12.471Z,100645.16
2023-01-20T22:05:41.539Z,100642.00
2023-01-20T22:08:10.319Z,100642.38
2023-01-20T22:10:39.412Z,100631.28
2023-01-20T22:13:09.558Z,100623.50
2023-01-20T22:15:40.382Z,100622.25
2023-01-20T22:18:09.297Z,100626.63
2023-01-20T22:20:38.430Z,100626.22
2023-01-20T22:23:07.180Z,100625.88
2023-01-20T22:25:36.517Z,100623.19
2023-01-20T22:28:06.149Z,100628.47
2023-01-20T22:30:36.703Z,100617.34
2023-01-20T22:33:05.651Z,100619.75
2023-01-20T22:35:34.754Z,100608.56
2023-01-20T22:38:04.013Z,100605.63
2023-01-20T22:40:34.340Z,100601.72
2023-01-20T22:43:03.406Z,100594.25
2023-01-20T22:45:32.507Z,100600.06
2023-01-20T22:48:02.822Z,100596.47
2023-01-20T22:50:31.871Z,100585.66
2023-01-20T22:53:00.662Z,100580.97
2023-01-20T22:55:30.127Z,100578.38
2023-01-20T22:58:00.490Z,100578.47
2023-01-20T23:00:29.552Z,100584.56
2023-01-20T23:02:58.466Z,100578.72
2023-01-20T23:05:28.958Z,100573.78
2023-01-20T23:07:57.797Z,100575.19
2023-01-20T23:10:44.387Z,100576.09
2023-01-20T23:13:13.481Z,100575.97
2023-01-20T23:15:42.713Z,100567.69
2023-01-20T23:18:12.089Z,100556.06
2023-01-20T23:20:42.788Z,100570.53
2023-01-20T23:23:11.907Z,100576.81
2023-01-20T23:25:40.982Z,100573.72
2023-01-20T23:28:10.020Z,100562.22
2023-01-20T23:30:40.264Z,100557.72
2023-01-20T23:33:09.799Z,100554.91
2023-01-20T23:35:39.702Z,100561.75
2023-01-20T23:38:10.396Z,100552.22
2023-01-20T23:40:39.458Z,100556.56
2023-01-20T23:43:08.995Z,100561.09
2023-01-20T23:45:38.083Z,100553.81
2023-01-20T23:48:07.613Z,100551.75
2023-01-20T23:50:36.654Z,100551.56
2023-01-20T23:53:05.587Z,100551.34
2023-01-20T23:55:38.358Z,100555.03
2023-01-20T23:58:07.173Z,100560.63
